Youngdale, Pennsylvania
Current Conditions -  °F | °C
As of 11:54 AM on Saturday 20 Dec 2014 (Local Time) from KIPT Reporting Station
Overcast Overcast  
Wind Chill: 29°   Ceiling: 2700
Heat Index: 33°   Visibility: 10mi
Dew Point: 20°   Wind: 5mph
Humidity: 59%   Direction: 10°N
Pressure: 30.25"   Gusts: NA
Location:  41.1494°N, 77.3657°W
Report Text: KIPT 201654Z 01004KT 10SM OVC027 01/M07 A3025 RMK AO2 SLP250 T00061067
Loading
Personal Weather Stations






























Interactive Weather Map New forecast layout! Learn more

10-Day Weather Forecast

Advertisements
Track Severe Weather on mobile